createdAt,value
2022-12-06T00:01:32.179Z,3.19
2022-12-06T00:04:05.034Z,3.18
2022-12-06T00:06:33.731Z,3.18
2022-12-06T00:09:01.205Z,3.20
2022-12-06T00:11:32.612Z,3.21
2022-12-06T00:14:02.224Z,3.23
2022-12-06T00:16:29.658Z,3.18
2022-12-06T00:18:57.786Z,3.18
2022-12-06T00:21:28.420Z,3.15
2022-12-06T00:24:04.095Z,3.16
2022-12-06T00:26:31.879Z,3.19
2022-12-06T00:29:00.311Z,3.21
2022-12-06T00:31:29.155Z,3.20
2022-12-06T00:33:56.578Z,3.19
2022-12-06T00:36:29.214Z,3.18
2022-12-06T00:38:59.439Z,3.19
2022-12-06T00:41:26.695Z,3.16
2022-12-06T00:43:54.294Z,3.13
2022-12-06T00:46:23.846Z,3.16
2022-12-06T00:48:52.145Z,3.12
2022-12-06T00:51:20.446Z,3.12
2022-12-06T00:53:48.304Z,3.11
2022-12-06T00:56:15.904Z,3.17
2022-12-06T00:58:43.190Z,3.23
2022-12-06T01:01:11.704Z,3.25
2022-12-06T01:03:39.923Z,3.27
2022-12-06T01:06:11.314Z,3.29
2022-12-06T01:08:39.577Z,3.26
2022-12-06T01:11:07.809Z,3.23
2022-12-06T01:13:35.901Z,3.27
2022-12-06T01:16:14.687Z,3.33
2022-12-06T01:18:43.338Z,3.37
2022-12-06T01:21:12.919Z,3.36
2022-12-06T01:23:40.468Z,3.37
2022-12-06T01:26:08.230Z,3.35
2022-12-06T01:28:35.467Z,3.34
2022-12-06T01:31:06.892Z,3.36
2022-12-06T01:33:34.301Z,3.35
2022-12-06T01:36:01.652Z,3.36
2022-12-06T01:38:28.713Z,3.31
2022-12-06T01:40:56.010Z,3.29
2022-12-06T01:43:41.050Z,3.27
2022-12-06T01:46:37.280Z,3.27
2022-12-06T01:49:15.938Z,3.27
2022-12-06T01:51:49.895Z,3.28
2022-12-06T01:54:19.916Z,3.31
2022-12-06T01:56:47.898Z,3.34
2022-12-06T01:59:15.648Z,3.35
2022-12-06T02:01:43.336Z,3.34
2022-12-06T02:04:10.566Z,3.32
2022-12-06T02:06:39.596Z,3.33
2022-12-06T02:09:08.511Z,3.35
2022-12-06T02:11:36.176Z,3.35
2022-12-06T02:14:04.981Z,3.34
2022-12-06T02:17:06.189Z,3.35
2022-12-06T02:19:59.828Z,3.32
2022-12-06T02:22:51.030Z,3.32
2022-12-06T02:25:43.534Z,3.32
2022-12-06T02:28:13.414Z,3.32
2022-12-06T02:30:58.012Z,3.33
2022-12-06T02:33:36.535Z,3.34
2022-12-06T02:36:41.789Z,3.37
2022-12-06T02:39:13.750Z,3.38
2022-12-06T02:41:47.934Z,3.35
2022-12-06T02:44:28.639Z,3.32
2022-12-06T02:46:56.744Z,3.33
2022-12-06T02:49:26.320Z,3.34
2022-12-06T02:51:54.740Z,3.34
2022-12-06T02:54:22.572Z,3.31
2022-12-06T02:56:49.622Z,3.27
2022-12-06T02:59:16.776Z,3.27
2022-12-06T03:01:50.443Z,3.30
2022-12-06T03:04:45.982Z,3.28
2022-12-06T03:07:41.444Z,3.28
2022-12-06T03:10:25.310Z,3.27
2022-12-06T03:13:01.986Z,3.20
2022-12-06T03:15:53.758Z,3.15
2022-12-06T03:18:42.076Z,3.13
2022-12-06T03:21:11.914Z,3.06
2022-12-06T03:23:44.666Z,3.01
2022-12-06T03:26:14.623Z,2.94
2022-12-06T03:28:42.971Z,2.95
2022-12-06T03:31:12.757Z,2.96
2022-12-06T03:33:44.380Z,3.01
2022-12-06T03:36:13.456Z,3.06
2022-12-06T03:39:04.333Z,3.10
2022-12-06T03:41:38.550Z,3.19
2022-12-06T03:44:05.731Z,3.22
2022-12-06T03:46:36.678Z,3.27
2022-12-06T03:49:17.433Z,3.32
2022-12-06T03:51:44.905Z,3.34
2022-12-06T03:54:12.399Z,3.35
2022-12-06T03:56:39.625Z,3.40
2022-12-06T03:59:07.997Z,3.45
2022-12-06T04:01:36.213Z,3.48
2022-12-06T04:04:03.797Z,3.47
2022-12-06T04:06:30.908Z,3.49
2022-12-06T04:09:17.980Z,3.45
2022-12-06T04:11:45.506Z,3.42
2022-12-06T04:14:12.730Z,3.43
2022-12-06T04:16:58.493Z,3.44
2022-12-06T04:19:25.845Z,3.48
2022-12-06T04:22:11.722Z,3.49
2022-12-06T04:24:39.029Z,3.52
2022-12-06T04:27:44.649Z,3.50
2022-12-06T04:30:30.353Z,3.46
2022-12-06T04:33:15.855Z,3.38
2022-12-06T04:36:01.680Z,3.30
2022-12-06T04:38:44.628Z,3.27
2022-12-06T04:41:33.198Z,3.27
2022-12-06T04:44:00.226Z,3.26
2022-12-06T04:46:27.337Z,3.28
2022-12-06T04:48:54.420Z,3.29
2022-12-06T04:51:21.649Z,3.29
2022-12-06T04:53:48.675Z,3.31
2022-12-06T04:56:15.798Z,3.35
2022-12-06T04:58:43.230Z,3.37
2022-12-06T05:01:10.366Z,3.38
2022-12-06T05:03:43.719Z,3.38
2022-12-06T05:06:11.571Z,3.38
2022-12-06T05:08:38.695Z,3.39
2022-12-06T05:11:06.047Z,3.36
2022-12-06T05:13:33.213Z,3.35
2022-12-06T05:16:02.464Z,3.36
2022-12-06T05:18:30.539Z,3.38
2022-12-06T05:21:19.089Z,3.41
2022-12-06T05:23:46.948Z,3.38
2022-12-06T05:26:19.314Z,3.37
2022-12-06T05:28:46.751Z,3.41
2022-12-06T05:31:14.194Z,3.41
2022-12-06T05:33:41.354Z,3.36
2022-12-06T05:36:10.157Z,3.37
2022-12-06T05:38:37.186Z,3.37
2022-12-06T05:41:04.441Z,3.34
2022-12-06T05:43:32.064Z,3.37
2022-12-06T05:46:00.687Z,3.38
2022-12-06T05:48:27.941Z,3.38
2022-12-06T05:50:55.044Z,3.40
2022-12-06T05:53:22.196Z,3.40
2022-12-06T05:55:49.719Z,3.33
2022-12-06T05:58:17.757Z,3.32
2022-12-06T06:00:51.052Z,3.34
2022-12-06T06:03:18.709Z,3.37
2022-12-06T06:05:50.586Z,3.36
2022-12-06T06:08:18.369Z,3.35
2022-12-06T06:10:45.672Z,3.36
2022-12-06T06:13:13.009Z,3.34
2022-12-06T06:15:40.052Z,3.36
2022-12-06T06:18:07.237Z,3.37
2022-12-06T06:20:34.561Z,3.37
2022-12-06T06:23:01.691Z,3.33
2022-12-06T06:25:28.776Z,3.32
2022-12-06T06:27:55.838Z,3.33
2022-12-06T06:30:22.995Z,3.31
2022-12-06T06:32:50.504Z,3.32
2022-12-06T06:35:17.660Z,3.34
2022-12-06T06:37:44.793Z,3.33
2022-12-06T06:40:12.034Z,3.35
2022-12-06T06:42:39.708Z,3.37
2022-12-06T06:45:07.377Z,3.37
2022-12-06T06:47:34.488Z,3.34
2022-12-06T06:50:01.801Z,3.33
2022-12-06T06:52:29.112Z,3.27
2022-12-06T06:54:56.159Z,3.21
2022-12-06T06:57:23.267Z,3.17
2022-12-06T06:59:50.436Z,3.12
2022-12-06T07:02:18.044Z,3.09
2022-12-06T07:04:45.138Z,3.06
2022-12-06T07:07:17.859Z,3.02
2022-12-06T07:09:46.481Z,2.96
2022-12-06T07:12:13.721Z,2.99
2022-12-06T07:14:40.840Z,2.96
2022-12-06T07:17:07.951Z,2.98
2022-12-06T07:19:35.067Z,3.02
2022-12-06T07:22:02.140Z,3.06
2022-12-06T07:24:29.201Z,3.08
2022-12-06T07:26:57.473Z,3.11
2022-12-06T07:29:24.559Z,3.05
2022-12-06T07:31:51.604Z,3.06
2022-12-06T07:34:18.687Z,3.08
2022-12-06T07:36:45.704Z,3.09
2022-12-06T07:39:14.947Z,3.09
2022-12-06T07:42:01.024Z,3.10
2022-12-06T07:44:46.849Z,3.13
2022-12-06T07:47:14.201Z,3.13
2022-12-06T07:49:41.303Z,3.16
2022-12-06T07:52:08.554Z,3.13
2022-12-06T07:54:35.648Z,3.09
2022-12-06T07:57:02.730Z,3.08
2022-12-06T07:59:29.807Z,3.06
2022-12-06T08:01:56.980Z,3.05
2022-12-06T08:04:24.393Z,2.99
2022-12-06T08:06:51.532Z,2.95
2022-12-06T08:09:18.779Z,2.95
2022-12-06T08:11:45.962Z,2.94
2022-12-06T08:14:13.350Z,2.95
2022-12-06T08:16:41.281Z,2.94
2022-12-06T08:19:08.380Z,2.93
2022-12-06T08:21:35.435Z,2.92
2022-12-06T08:24:04.213Z,2.94
2022-12-06T08:26:31.297Z,2.97
2022-12-06T08:29:01.326Z,2.97
2022-12-06T08:31:31.018Z,2.97
2022-12-06T08:33:58.228Z,2.98
2022-12-06T08:36:25.391Z,2.96
2022-12-06T08:38:52.882Z,2.99
2022-12-06T08:41:39.610Z,3.00
2022-12-06T08:44:07.370Z,3.04
2022-12-06T08:46:35.150Z,3.02
2022-12-06T08:49:02.445Z,2.97
2022-12-06T08:51:30.877Z,2.93
2022-12-06T08:53:58.365Z,2.92
2022-12-06T08:56:26.203Z,2.92
2022-12-06T08:58:54.332Z,2.95
2022-12-06T09:01:26.823Z,2.96
2022-12-06T09:03:54.147Z,2.98
2022-12-06T09:06:22.128Z,3.00
2022-12-06T09:08:49.274Z,3.02
2022-12-06T09:11:16.884Z,2.99
2022-12-06T09:13:44.056Z,3.02
2022-12-06T09:16:13.623Z,3.01
2022-12-06T09:18:40.720Z,2.97
2022-12-06T09:21:09.716Z,2.90
2022-12-06T09:23:37.212Z,2.88
2022-12-06T09:26:05.316Z,2.84
2022-12-06T09:28:35.359Z,2.79
2022-12-06T09:31:03.806Z,2.79
2022-12-06T09:33:31.066Z,2.77
2022-12-06T09:35:59.910Z,2.76
2022-12-06T09:38:28.333Z,2.72
2022-12-06T09:41:18.453Z,2.71
2022-12-06T09:44:20.743Z,2.75
2022-12-06T09:47:09.815Z,2.75
2022-12-06T09:49:43.045Z,2.76
2022-12-06T09:52:30.562Z,2.73
2022-12-06T09:55:10.327Z,2.70
2022-12-06T09:57:47.855Z,2.69
2022-12-06T10:00:22.666Z,2.67
2022-12-06T10:03:14.121Z,2.62
2022-12-06T10:06:02.663Z,2.58
2022-12-06T10:08:35.800Z,2.57
2022-12-06T10:11:30.893Z,2.57
2022-12-06T10:14:05.731Z,2.50
2022-12-06T10:16:47.068Z,2.43
2022-12-06T10:19:40.570Z,2.34
2022-12-06T10:22:35.992Z,2.35
2022-12-06T10:26:01.715Z,2.34
2022-12-06T10:28:54.559Z,2.32
2022-12-06T10:31:24.257Z,2.30
2022-12-06T10:33:56.125Z,2.24
2022-12-06T10:36:51.093Z,2.22
2022-12-06T10:39:22.787Z,2.18
2022-12-06T10:42:28.044Z,2.21
2022-12-06T10:45:37.187Z,2.24
2022-12-06T10:48:09.302Z,2.25
2022-12-06T10:50:38.143Z,2.27
2022-12-06T10:53:18.928Z,2.27
2022-12-06T10:55:49.478Z,2.27
2022-12-06T10:58:18.088Z,2.23
2022-12-06T11:00:58.990Z,2.22
2022-12-06T11:03:40.190Z,2.20
2022-12-06T11:06:11.254Z,2.14
2022-12-06T11:08:42.498Z,2.14
2022-12-06T11:11:18.686Z,2.13
2022-12-06T11:13:56.680Z,2.13
2022-12-06T11:16:45.141Z,2.14
2022-12-06T11:19:34.672Z,2.21
2022-12-06T11:22:14.673Z,2.23
2022-12-06T11:24:57.357Z,2.29
2022-12-06T11:27:32.064Z,2.30
2022-12-06T11:29:59.701Z,2.30
2022-12-06T11:32:26.970Z,2.31
2022-12-06T11:34:56.230Z,2.31
2022-12-06T11:37:33.987Z,2.32
2022-12-06T11:40:47.202Z,2.20
2022-12-06T11:43:18.763Z,2.06
2022-12-06T11:45:46.082Z,2.05
2022-12-06T11:48:17.160Z,2.00
2022-12-06T11:50:46.206Z,1.98
2022-12-06T11:53:25.347Z,1.98
2022-12-06T11:55:56.187Z,1.95
2022-12-06T11:58:28.033Z,1.93
2022-12-06T12:01:02.593Z,1.91
2022-12-06T12:03:35.594Z,1.89
2022-12-06T12:06:14.953Z,1.88
2022-12-06T12:08:51.064Z,1.90
2022-12-06T12:11:27.047Z,1.93
2022-12-06T12:14:05.836Z,1.93
2022-12-06T12:16:38.066Z,1.92
2022-12-06T12:19:24.829Z,1.94
2022-12-06T12:21:54.610Z,1.93
2022-12-06T12:25:18.033Z,1.95
2022-12-06T12:27:50.519Z,1.98
2022-12-06T12:30:23.806Z,2.01
2022-12-06T12:32:53.009Z,2.01
2022-12-06T12:35:28.385Z,2.01
2022-12-06T12:38:02.947Z,2.04
2022-12-06T12:40:38.748Z,2.04
2022-12-06T12:43:08.190Z,2.01
2022-12-06T12:45:36.007Z,2.03
2022-12-06T12:48:18.865Z,2.02
2022-12-06T12:50:57.130Z,1.99
2022-12-06T12:53:38.483Z,2.01
2022-12-06T12:56:12.151Z,2.00
2022-12-06T12:58:39.748Z,2.01
2022-12-06T13:01:25.071Z,2.02
2022-12-06T13:03:55.610Z,2.03
2022-12-06T13:06:41.349Z,2.05
2022-12-06T13:09:15.571Z,2.08
2022-12-06T13:11:48.826Z,2.09
2022-12-06T13:14:19.717Z,2.08
2022-12-06T13:16:50.102Z,2.07
2022-12-06T13:19:18.922Z,2.07
2022-12-06T13:21:47.284Z,2.03
2022-12-06T13:24:33.844Z,2.04
2022-12-06T13:27:03.919Z,2.03
2022-12-06T13:29:37.410Z,2.06
2022-12-06T13:32:36.596Z,2.07
2022-12-06T13:35:17.513Z,2.06
2022-12-06T13:37:52.200Z,2.07
2022-12-06T13:40:38.474Z,2.09
2022-12-06T13:43:25.334Z,2.09
2022-12-06T13:45:52.998Z,2.07
2022-12-06T13:48:26.044Z,2.09
2022-12-06T13:51:05.371Z,2.06
2022-12-06T13:53:34.005Z,2.05
2022-12-06T13:56:19.942Z,2.05
2022-12-06T13:58:52.997Z,2.04
2022-12-06T14:01:40.057Z,2.03
2022-12-06T14:06:55.723Z,2.02
2022-12-06T14:09:24.196Z,2.05
2022-12-06T14:11:51.408Z,2.03
2022-12-06T14:14:21.067Z,1.98
2022-12-06T14:16:50.344Z,1.94
2022-12-06T14:19:22.070Z,1.90
2022-12-06T14:22:03.600Z,1.87
2022-12-06T14:24:35.036Z,1.88
2022-12-06T14:27:13.774Z,1.81
2022-12-06T14:29:42.652Z,1.77
2022-12-06T14:32:09.926Z,1.72
2022-12-06T14:34:37.500Z,1.69
2022-12-06T14:37:21.114Z,1.67
2022-12-06T14:39:54.601Z,1.68
2022-12-06T14:42:40.804Z,1.69
2022-12-06T14:45:16.127Z,1.67
2022-12-06T14:47:44.751Z,1.62
2022-12-06T14:50:32.441Z,1.60
2022-12-06T14:53:09.869Z,1.56
2022-12-06T14:55:49.378Z,1.51
2022-12-06T14:58:18.166Z,1.51
2022-12-06T15:00:54.580Z,1.56
2022-12-06T15:03:32.682Z,1.56
2022-12-06T15:06:11.233Z,1.56
2022-12-06T15:08:40.428Z,1.57
2022-12-06T15:11:13.448Z,1.58
2022-12-06T15:13:40.522Z,1.60
2022-12-06T15:16:07.729Z,1.61
2022-12-06T15:18:38.806Z,1.60
2022-12-06T15:21:14.053Z,1.60
2022-12-06T15:24:33.446Z,1.61
2022-12-06T15:27:00.974Z,1.60
2022-12-06T15:29:28.037Z,1.63
2022-12-06T15:31:55.875Z,1.62
2022-12-06T15:34:24.483Z,1.62
2022-12-06T15:37:09.060Z,1.63
2022-12-06T15:39:39.788Z,1.65
2022-12-06T15:42:18.415Z,1.63
2022-12-06T15:44:49.088Z,1.62
2022-12-06T15:47:18.360Z,1.64
2022-12-06T15:49:45.566Z,1.63
2022-12-06T15:52:16.094Z,1.66
2022-12-06T15:54:43.485Z,1.66
2022-12-06T15:57:10.680Z,1.67
2022-12-06T15:59:37.791Z,1.63
2022-12-06T16:02:13.239Z,1.59
2022-12-06T16:04:40.397Z,1.56
2022-12-06T16:07:07.626Z,1.54
2022-12-06T16:09:34.765Z,1.55
2022-12-06T16:12:01.860Z,1.52
2022-12-06T16:14:28.931Z,1.45
2022-12-06T16:16:56.231Z,1.40
2022-12-06T16:19:23.343Z,1.38
2022-12-06T16:21:52.941Z,1.41
2022-12-06T16:24:20.355Z,1.46
2022-12-06T16:26:47.839Z,1.46
2022-12-06T16:29:17.348Z,1.46
2022-12-06T16:31:45.247Z,1.45
2022-12-06T16:34:12.588Z,1.44
2022-12-06T16:36:57.659Z,1.45
2022-12-06T16:39:24.970Z,1.43
2022-12-06T16:41:52.050Z,1.42
2022-12-06T16:44:19.398Z,1.43
2022-12-06T16:46:46.701Z,1.40
2022-12-06T16:52:10.215Z,1.42
2022-12-06T16:54:41.149Z,1.46
2022-12-06T16:57:10.608Z,1.47
2022-12-06T16:59:37.863Z,1.49
2022-12-06T17:02:19.410Z,1.49
2022-12-06T17:04:46.498Z,1.49
2022-12-06T17:07:13.650Z,1.47
2022-12-06T17:09:40.678Z,1.44
2022-12-06T17:12:12.763Z,1.43
2022-12-06T17:14:40.212Z,1.42
2022-12-06T17:17:12.885Z,1.40
2022-12-06T17:19:41.005Z,1.36
2022-12-06T17:22:10.077Z,1.38
2022-12-06T17:24:37.776Z,1.42
2022-12-06T17:27:04.859Z,1.43
2022-12-06T17:29:31.934Z,1.45
2022-12-06T17:31:59.027Z,1.47
2022-12-06T17:34:27.482Z,1.45
2022-12-06T17:36:55.975Z,1.46
2022-12-06T17:39:23.114Z,1.45
2022-12-06T17:42:08.707Z,1.43
2022-12-06T17:44:36.036Z,1.37
2022-12-06T17:47:03.117Z,1.39
2022-12-06T17:49:30.169Z,1.41
2022-12-06T17:51:57.296Z,1.38
2022-12-06T17:54:24.384Z,1.39
2022-12-06T17:56:53.087Z,1.39
2022-12-06T17:59:22.279Z,1.40
2022-12-06T18:04:37.169Z,1.38
2022-12-06T18:07:04.266Z,1.35
2022-12-06T18:09:31.309Z,1.37
2022-12-06T18:12:00.977Z,1.39
2022-12-06T18:14:28.533Z,1.42
2022-12-06T18:16:56.184Z,1.40
2022-12-06T18:19:23.696Z,1.39
2022-12-06T18:21:52.298Z,1.40
2022-12-06T18:24:22.608Z,1.36
2022-12-06T18:26:51.056Z,1.34
2022-12-06T18:29:20.990Z,1.34
2022-12-06T18:31:48.377Z,1.32
2022-12-06T18:34:15.562Z,1.30
2022-12-06T18:36:42.872Z,1.30
2022-12-06T18:39:16.395Z,1.31
2022-12-06T18:41:44.812Z,1.29
2022-12-06T18:44:12.694Z,1.27
2022-12-06T18:46:42.778Z,1.23
2022-12-06T18:49:13.550Z,1.18
2022-12-06T18:51:41.171Z,1.12
2022-12-06T18:54:08.672Z,1.15
2022-12-06T18:56:36.441Z,1.13
2022-12-06T18:59:07.550Z,1.13
2022-12-06T19:01:37.205Z,1.10
2022-12-06T19:04:06.597Z,1.11
2022-12-06T19:06:35.720Z,1.06
2022-12-06T19:09:06.940Z,1.01
2022-12-06T19:11:38.599Z,1.01
2022-12-06T19:14:06.082Z,1.03
2022-12-06T19:16:39.333Z,1.05
2022-12-06T19:19:15.494Z,1.09
2022-12-06T19:21:46.910Z,1.11
2022-12-06T19:24:17.195Z,1.13
2022-12-06T19:26:44.695Z,1.15
2022-12-06T19:29:12.840Z,1.16
2022-12-06T19:31:39.994Z,1.16
2022-12-06T19:34:07.413Z,1.18
2022-12-06T19:36:34.557Z,1.18
2022-12-06T19:39:06.257Z,1.20
2022-12-06T19:41:52.554Z,1.22
2022-12-06T19:44:19.620Z,1.26
2022-12-06T19:46:48.303Z,1.30
2022-12-06T19:49:17.609Z,1.33
2022-12-06T19:51:46.609Z,1.34
2022-12-06T19:54:15.941Z,1.37
2022-12-06T19:56:43.107Z,1.35
2022-12-06T19:59:13.550Z,1.35
2022-12-06T20:01:43.404Z,1.33
2022-12-06T20:04:22.822Z,1.32
2022-12-06T20:06:51.422Z,1.33
2022-12-06T20:09:20.447Z,1.37
2022-12-06T20:12:03.473Z,1.39
2022-12-06T20:14:39.582Z,1.39
2022-12-06T20:17:11.266Z,1.39
2022-12-06T20:19:38.953Z,1.40
2022-12-06T20:22:06.054Z,1.42
2022-12-06T20:24:33.168Z,1.42
2022-12-06T20:27:00.302Z,1.40
2022-12-06T20:29:29.809Z,1.40
2022-12-06T20:32:00.540Z,1.43
2022-12-06T20:34:30.054Z,1.40
2022-12-06T20:36:57.307Z,1.42
2022-12-06T20:39:26.048Z,1.40
2022-12-06T20:41:53.885Z,1.40
2022-12-06T20:44:21.492Z,1.36
2022-12-06T20:46:49.266Z,1.34
2022-12-06T20:49:16.876Z,1.33
2022-12-06T20:51:48.099Z,1.32
2022-12-06T20:54:18.455Z,1.32
2022-12-06T20:56:47.028Z,1.31
2022-12-06T20:59:14.169Z,1.32
2022-12-06T21:01:41.725Z,1.27
2022-12-06T21:04:12.225Z,1.26
2022-12-06T21:06:39.306Z,1.28
2022-12-06T21:09:06.411Z,1.27
2022-12-06T21:11:33.501Z,1.27
2022-12-06T21:14:00.542Z,1.28
2022-12-06T21:16:31.398Z,1.24
2022-12-06T21:19:19.430Z,1.20
2022-12-06T21:21:49.507Z,1.17
2022-12-06T21:24:18.695Z,1.20
2022-12-06T21:26:46.841Z,1.21
2022-12-06T21:29:20.097Z,1.23
2022-12-06T21:31:48.076Z,1.22
2022-12-06T21:34:15.629Z,1.25
2022-12-06T21:36:43.488Z,1.25
2022-12-06T21:39:13.060Z,1.28
2022-12-06T21:41:40.122Z,1.30
2022-12-06T21:44:07.229Z,1.33
2022-12-06T21:46:34.502Z,1.34
2022-12-06T21:49:01.842Z,1.37
2022-12-06T21:51:31.263Z,1.40
2022-12-06T21:53:58.995Z,1.44
2022-12-06T21:56:28.565Z,1.47
2022-12-06T21:58:55.962Z,1.48
2022-12-06T22:01:27.712Z,1.43
2022-12-06T22:03:57.096Z,1.44
2022-12-06T22:06:24.972Z,1.44
2022-12-06T22:09:02.949Z,1.43
2022-12-06T22:11:30.639Z,1.41
2022-12-06T22:13:59.691Z,1.38
2022-12-06T22:16:28.300Z,1.38
2022-12-06T22:18:55.463Z,1.36
2022-12-06T22:21:25.363Z,1.35
2022-12-06T22:23:52.882Z,1.34
2022-12-06T22:26:21.948Z,1.32
2022-12-06T22:28:49.400Z,1.32
2022-12-06T22:31:19.514Z,1.34
2022-12-06T22:33:47.559Z,1.35
2022-12-06T22:36:15.837Z,1.37
2022-12-06T22:38:43.602Z,1.40
2022-12-06T22:41:10.848Z,1.41
2022-12-06T22:43:38.044Z,1.42
2022-12-06T22:46:07.858Z,1.42
2022-12-06T22:48:35.592Z,1.43
2022-12-06T22:51:15.872Z,1.48
2022-12-06T22:53:45.092Z,1.49
2022-12-06T22:56:12.738Z,1.48
2022-12-06T22:58:39.793Z,1.50
2022-12-06T23:01:18.177Z,1.50
2022-12-06T23:03:47.155Z,1.51
2022-12-06T23:06:15.578Z,1.52
2022-12-06T23:08:42.896Z,1.56
2022-12-06T23:11:18.070Z,1.55
2022-12-06T23:13:45.613Z,1.55
2022-12-06T23:16:15.229Z,1.55
2022-12-06T23:18:42.727Z,1.56
2022-12-06T23:21:17.956Z,1.56
2022-12-06T23:23:48.085Z,1.56
2022-12-06T23:26:17.572Z,1.56
2022-12-06T23:28:44.757Z,1.52
2022-12-06T23:31:23.168Z,1.46
2022-12-06T23:34:15.780Z,1.38
2022-12-06T23:36:43.326Z,1.34
2022-12-06T23:39:11.032Z,1.29
2022-12-06T23:41:38.567Z,1.29
2022-12-06T23:44:06.883Z,1.26
2022-12-06T23:46:36.110Z,1.18
2022-12-06T23:49:04.035Z,1.16
2022-12-06T23:51:36.164Z,1.13
2022-12-06T23:54:05.003Z,1.14
2022-12-06T23:56:34.295Z,1.15
2022-12-06T23:59:03.582Z,1.10
